createdAt,value
2022-08-11T00:01:54.168Z,23.89
2022-08-11T00:04:25.414Z,23.85
2022-08-11T00:06:53.839Z,23.81
2022-08-11T00:09:24.227Z,23.79
2022-08-11T00:11:52.902Z,23.76
2022-08-11T00:14:21.865Z,23.73
2022-08-11T00:16:56.797Z,23.70
2022-08-11T00:20:12.477Z,23.67
2022-08-11T00:22:21.915Z,23.64
2022-08-11T00:24:54.793Z,23.61
2022-08-11T00:27:32.851Z,23.58
2022-08-11T00:30:00.646Z,23.55
2022-08-11T00:32:29.977Z,23.52
2022-08-11T00:35:51.864Z,23.49
2022-08-11T00:37:50.453Z,23.46
2022-08-11T00:40:21.060Z,23.44
2022-08-11T00:42:57.826Z,23.42
2022-08-11T00:45:28.494Z,23.40
2022-08-11T00:48:03.810Z,23.37
2022-08-11T00:50:42.712Z,23.35
2022-08-11T00:53:26.141Z,23.32
2022-08-11T00:56:27.219Z,23.31
2022-08-11T00:59:35.013Z,23.27
2022-08-11T01:02:16.777Z,23.23
2022-08-11T01:04:57.595Z,23.22
2022-08-11T01:07:59.090Z,23.18
2022-08-11T01:10:45.728Z,23.14
2022-08-11T01:13:20.069Z,23.12
2022-08-11T01:16:11.879Z,23.08
2022-08-11T01:19:04.574Z,23.05
2022-08-11T01:22:03.613Z,23.01
2022-08-11T01:24:46.227Z,22.97
2022-08-11T01:27:40.782Z,22.94
2022-08-11T01:30:23.579Z,22.90
2022-08-11T01:33:09.074Z,22.87
2022-08-11T01:35:48.734Z,22.85
2022-08-11T01:38:33.580Z,22.82
2022-08-11T01:41:16.446Z,22.79
2022-08-11T01:44:27.618Z,22.75
2022-08-11T01:47:03.931Z,22.71
2022-08-11T01:50:08.057Z,22.67
2022-08-11T01:52:31.052Z,22.63
2022-08-11T01:55:14.214Z,22.60
2022-08-11T01:57:47.519Z,22.56
2022-08-11T02:00:17.494Z,22.52
2022-08-11T02:02:54.130Z,22.48
2022-08-11T02:05:27.696Z,22.45
2022-08-11T02:08:06.237Z,22.40
2022-08-11T02:11:05.105Z,22.37
2022-08-11T02:13:41.476Z,22.34
2022-08-11T02:16:17.969Z,22.29
2022-08-11T02:19:07.986Z,22.27
2022-08-11T02:22:00.408Z,22.21
2022-08-11T02:24:31.882Z,22.18
2022-08-11T02:27:03.395Z,22.14
2022-08-11T02:29:34.475Z,22.11
2022-08-11T02:32:30.189Z,22.08
2022-08-11T02:35:05.230Z,22.05
2022-08-11T02:37:38.433Z,22.01
2022-08-11T02:40:32.494Z,21.97
2022-08-11T02:43:10.652Z,21.94
2022-08-11T02:45:47.413Z,21.91
2022-08-11T02:48:42.829Z,21.86
2022-08-11T02:51:22.326Z,21.82
2022-08-11T02:53:58.216Z,21.79
2022-08-11T02:56:38.148Z,21.76
2022-08-11T02:59:26.597Z,21.73
2022-08-11T03:02:05.194Z,21.69
2022-08-11T03:04:38.865Z,21.66
2022-08-11T03:07:28.179Z,21.63
2022-08-11T03:10:04.554Z,21.59
2022-08-11T03:12:53.680Z,21.57
2022-08-11T03:15:42.066Z,21.54
2022-08-11T03:18:17.666Z,21.51
2022-08-11T03:20:48.604Z,21.48
2022-08-11T03:23:20.623Z,21.45
2022-08-11T03:25:52.810Z,21.43
2022-08-11T03:28:28.539Z,21.40
2022-08-11T03:31:02.307Z,21.37
2022-08-11T03:33:49.301Z,21.36
2022-08-11T03:36:24.294Z,21.31
2022-08-11T03:39:01.160Z,21.29
2022-08-11T03:42:02.114Z,21.25
2022-08-11T03:44:44.669Z,21.21
2022-08-11T03:47:30.033Z,21.17
2022-08-11T03:50:04.745Z,21.13
2022-08-11T03:52:39.433Z,21.09
2022-08-11T03:55:11.548Z,21.06
2022-08-11T03:58:05.849Z,21.02
2022-08-11T04:01:06.062Z,20.99
2022-08-11T04:03:54.690Z,20.94
2022-08-11T04:06:37.602Z,20.90
2022-08-11T04:09:32.211Z,20.88
2022-08-11T04:12:35.302Z,20.86
2022-08-11T04:15:41.181Z,20.83
2022-08-11T04:18:32.511Z,20.81
2022-08-11T04:21:10.560Z,20.78
2022-08-11T04:24:33.071Z,20.76
2022-08-11T04:27:14.124Z,20.73
2022-08-11T04:30:04.015Z,20.71
2022-08-11T04:32:46.127Z,20.69
2022-08-11T04:35:34.782Z,20.67
2022-08-11T04:38:32.567Z,20.65
2022-08-11T04:41:21.288Z,20.63
2022-08-11T04:44:12.154Z,20.60
2022-08-11T04:46:57.981Z,20.57
2022-08-11T04:50:02.156Z,20.57
2022-08-11T04:52:59.145Z,20.55
2022-08-11T04:56:00.301Z,20.52
2022-08-11T04:58:59.855Z,20.50
2022-08-11T05:01:42.357Z,20.48
2022-08-11T05:04:31.562Z,20.48
2022-08-11T05:07:13.620Z,20.48
2022-08-11T05:09:52.370Z,20.48
2022-08-11T05:12:29.752Z,20.49
2022-08-11T05:15:16.179Z,20.50
2022-08-11T05:18:04.135Z,20.50
2022-08-11T05:20:50.208Z,20.51
2022-08-11T05:23:38.369Z,20.51
2022-08-11T05:26:47.502Z,20.52
2022-08-11T05:29:58.707Z,20.54
2022-08-11T05:32:46.610Z,20.60
2022-08-11T05:35:28.327Z,20.68
2022-08-11T05:38:20.540Z,20.80
2022-08-11T05:41:10.396Z,20.93
2022-08-11T05:44:19.682Z,21.09
2022-08-11T05:47:07.895Z,21.29
2022-08-11T05:49:53.525Z,21.45
2022-08-11T05:52:41.707Z,21.62
2022-08-11T05:55:28.431Z,21.75
2022-08-11T05:57:57.520Z,21.88
2022-08-11T06:00:25.763Z,21.98
2022-08-11T06:02:55.951Z,22.07
2022-08-11T06:05:33.070Z,22.14
2022-08-11T06:08:07.239Z,22.19
2022-08-11T06:10:36.277Z,22.24
2022-08-11T06:13:04.994Z,22.27
2022-08-11T06:15:34.143Z,22.30
2022-08-11T06:18:04.346Z,22.33
2022-08-11T06:20:37.489Z,22.34
2022-08-11T06:23:06.473Z,22.37
2022-08-11T06:25:36.072Z,22.39
2022-08-11T06:28:05.020Z,22.41
2022-08-11T06:30:39.914Z,22.43
2022-08-11T06:33:12.055Z,22.47
2022-08-11T06:35:47.671Z,22.52
2022-08-11T06:38:20.536Z,22.60
2022-08-11T06:41:06.050Z,22.71
2022-08-11T06:43:43.902Z,22.83
2022-08-11T06:46:29.564Z,22.98
2022-08-11T06:49:02.442Z,23.10
2022-08-11T06:51:32.710Z,23.21
2022-08-11T06:54:04.283Z,23.34
2022-08-11T06:57:06.670Z,23.46
2022-08-11T06:59:59.062Z,23.62
2022-08-11T07:02:31.290Z,23.75
2022-08-11T07:05:04.378Z,23.90
2022-08-11T07:08:34.779Z,24.04
2022-08-11T07:11:21.585Z,24.24
2022-08-11T07:14:08.674Z,24.40
2022-08-11T07:16:40.662Z,24.57
2022-08-11T07:19:26.275Z,24.72
2022-08-11T07:22:14.323Z,24.91
2022-08-11T07:25:03.564Z,25.08
2022-08-11T07:27:55.212Z,25.27
2022-08-11T07:30:23.516Z,25.45
2022-08-11T07:32:52.443Z,25.62
2022-08-11T07:35:23.313Z,25.78
2022-08-11T07:38:01.549Z,25.94
2022-08-11T07:40:31.582Z,26.10
2022-08-11T07:43:01.115Z,26.25
2022-08-11T07:45:46.956Z,26.38
2022-08-11T07:48:33.589Z,26.54
2022-08-11T07:51:19.821Z,26.68
2022-08-11T07:53:58.700Z,26.82
2022-08-11T07:56:54.473Z,26.96
2022-08-11T08:00:00.379Z,27.10
2022-08-11T08:02:57.555Z,27.26
2022-08-11T08:05:43.542Z,27.40
2022-08-11T08:08:29.526Z,27.56
2022-08-11T08:11:16.601Z,27.72
2022-08-11T08:14:02.566Z,27.88
2022-08-11T08:16:48.792Z,28.04
2022-08-11T08:19:18.541Z,28.20
2022-08-11T08:21:46.822Z,28.34
2022-08-11T08:24:15.863Z,28.49
2022-08-11T08:27:01.097Z,28.61
2022-08-11T08:29:48.020Z,28.74
2022-08-11T08:32:18.916Z,28.86
2022-08-11T08:34:48.066Z,28.96
2022-08-11T08:37:45.549Z,29.09
2022-08-11T08:40:08.834Z,29.23
2022-08-11T08:42:44.888Z,29.34
2022-08-11T08:45:16.046Z,29.49
2022-08-11T08:47:51.161Z,29.60
2022-08-11T08:50:27.505Z,29.75
2022-08-11T08:52:59.535Z,29.87
2022-08-11T08:55:28.803Z,30.01
2022-08-11T08:58:00.899Z,30.14
2022-08-11T09:00:39.065Z,30.26
2022-08-11T09:03:36.045Z,30.36
2022-08-11T09:05:55.918Z,30.49
2022-08-11T09:08:24.630Z,30.59
2022-08-11T09:11:13.944Z,30.69
2022-08-11T09:13:44.919Z,30.80
2022-08-11T09:16:12.984Z,30.90
2022-08-11T09:18:44.737Z,31.00
2022-08-11T09:21:14.823Z,31.09
2022-08-11T09:24:26.495Z,31.19
2022-08-11T09:27:01.311Z,31.28
2022-08-11T09:29:33.479Z,31.37
2022-08-11T09:32:01.730Z,31.44
2022-08-11T09:34:29.850Z,31.49
2022-08-11T09:37:53.371Z,31.54
2022-08-11T09:40:37.067Z,31.60
2022-08-11T09:43:24.057Z,31.67
2022-08-11T09:45:54.336Z,31.73
2022-08-11T09:48:23.355Z,31.76
2022-08-11T09:50:52.188Z,31.80
2022-08-11T09:53:36.218Z,31.85
2022-08-11T09:56:21.034Z,31.90
2022-08-11T09:58:49.087Z,31.97
2022-08-11T10:01:28.260Z,32.04
2022-08-11T10:04:01.609Z,32.11
2022-08-11T10:06:48.540Z,32.19
2022-08-11T10:09:25.255Z,32.29
2022-08-11T10:11:55.598Z,32.36
2022-08-11T10:14:44.740Z,32.44
2022-08-11T10:17:16.256Z,32.50
2022-08-11T10:19:48.874Z,32.57
2022-08-11T10:22:50.428Z,32.64
2022-08-11T10:25:35.633Z,32.71
2022-08-11T10:28:30.830Z,32.78
2022-08-11T10:31:20.132Z,32.82
2022-08-11T10:34:01.584Z,32.87
2022-08-11T10:36:30.580Z,32.93
2022-08-11T10:38:59.027Z,32.98
2022-08-11T10:42:06.467Z,33.03
2022-08-11T10:44:37.307Z,33.10
2022-08-11T10:47:23.361Z,33.14
2022-08-11T10:50:13.723Z,33.19
2022-08-11T10:52:59.675Z,33.22
2022-08-11T10:55:45.419Z,33.23
2022-08-11T10:58:31.823Z,33.23
2022-08-11T11:01:00.795Z,33.24
2022-08-11T11:03:30.303Z,33.23
2022-08-11T11:06:27.502Z,33.24
2022-08-11T11:08:58.868Z,33.25
2022-08-11T11:11:45.063Z,33.27
2022-08-11T11:14:32.944Z,33.30
2022-08-11T11:17:20.692Z,33.34
2022-08-11T11:19:51.165Z,33.37
2022-08-11T11:22:40.790Z,33.39
2022-08-11T11:25:16.762Z,33.42
2022-08-11T11:27:52.880Z,33.45
2022-08-11T11:30:20.959Z,33.49
2022-08-11T11:32:59.202Z,33.51
2022-08-11T11:35:31.912Z,33.53
2022-08-11T11:38:04.908Z,33.55
2022-08-11T11:40:34.240Z,33.56
2022-08-11T11:43:02.488Z,33.56
2022-08-11T11:45:30.688Z,33.55
2022-08-11T11:50:58.457Z,33.51
2022-08-11T11:53:28.261Z,33.50
2022-08-11T11:55:58.569Z,33.50
2022-08-11T11:58:45.233Z,33.51
2022-08-11T12:01:17.523Z,33.53
2022-08-11T12:03:46.699Z,33.56
2022-08-11T12:06:15.413Z,33.57
2022-08-11T12:08:45.652Z,33.59
2022-08-11T12:11:31.773Z,33.61
2022-08-11T12:14:01.501Z,33.61
2022-08-11T12:16:34.668Z,33.59
2022-08-11T12:19:05.071Z,33.60
2022-08-11T12:21:33.502Z,33.61
2022-08-11T12:24:21.020Z,33.63
2022-08-11T12:27:16.453Z,33.64
2022-08-11T12:29:47.440Z,33.68
2022-08-11T12:32:19.010Z,33.70
2022-08-11T12:34:47.024Z,33.71
2022-08-11T12:37:14.947Z,33.73
2022-08-11T12:40:16.811Z,33.73
2022-08-11T12:43:37.121Z,33.73
2022-08-11T12:46:09.124Z,33.72
2022-08-11T12:48:59.536Z,33.72
2022-08-11T12:52:11.064Z,33.72
2022-08-11T12:54:42.557Z,33.76
2022-08-11T12:57:36.523Z,33.77
2022-08-11T13:00:23.683Z,33.81
2022-08-11T13:03:09.618Z,33.84
2022-08-11T13:05:44.808Z,33.86
2022-08-11T13:08:15.399Z,33.90
2022-08-11T13:11:01.444Z,33.92
2022-08-11T13:13:54.099Z,33.94
2022-08-11T13:16:20.814Z,33.95
2022-08-11T13:18:49.138Z,33.93
2022-08-11T13:21:20.180Z,33.92
2022-08-11T13:24:01.323Z,33.92
2022-08-11T13:26:43.067Z,33.91
2022-08-11T13:29:19.149Z,33.91
2022-08-11T13:31:47.402Z,33.91
2022-08-11T13:34:16.314Z,33.92
2022-08-11T13:36:44.716Z,33.92
2022-08-11T13:39:13.570Z,33.92
2022-08-11T13:41:45.188Z,33.93
2022-08-11T13:44:15.815Z,33.91
2022-08-11T13:46:47.980Z,33.90
2022-08-11T13:49:22.100Z,33.88
2022-08-11T13:51:50.407Z,33.86
2022-08-11T13:54:18.878Z,33.81
2022-08-11T13:56:48.078Z,33.78
2022-08-11T13:59:17.184Z,33.74
2022-08-11T14:02:22.551Z,33.70
2022-08-11T14:04:40.488Z,33.65
2022-08-11T14:07:10.218Z,33.60
2022-08-11T14:09:39.091Z,33.57
2022-08-11T14:12:27.474Z,33.53
2022-08-11T14:15:05.856Z,33.51
2022-08-11T14:17:48.489Z,33.49
2022-08-11T14:20:38.296Z,33.47
2022-08-11T14:23:06.249Z,33.45
2022-08-11T14:26:00.717Z,33.44
2022-08-11T14:28:31.849Z,33.43
2022-08-11T14:31:02.753Z,33.39
2022-08-11T14:33:58.410Z,33.36
2022-08-11T14:36:26.024Z,33.32
2022-08-11T14:38:55.004Z,33.29
2022-08-11T14:42:11.464Z,33.26
2022-08-11T14:44:49.442Z,33.21
2022-08-11T14:47:24.255Z,33.17
2022-08-11T14:50:09.468Z,33.12
2022-08-11T14:52:45.106Z,33.07
2022-08-11T14:55:31.422Z,33.04
2022-08-11T14:57:59.980Z,32.99
2022-08-11T15:00:27.827Z,32.97
2022-08-11T15:03:10.945Z,32.94
2022-08-11T15:05:40.786Z,32.90
2022-08-11T15:08:10.459Z,32.86
2022-08-11T15:10:38.416Z,32.84
2022-08-11T15:13:07.026Z,32.81
2022-08-11T15:15:52.578Z,32.79
2022-08-11T15:18:24.132Z,32.75
2022-08-11T15:21:10.200Z,32.73
2022-08-11T15:23:57.280Z,32.70
2022-08-11T15:26:43.408Z,32.66
2022-08-11T15:29:30.824Z,32.63
2022-08-11T15:32:16.651Z,32.59
2022-08-11T15:35:07.799Z,32.58
2022-08-11T15:37:36.267Z,32.56
2022-08-11T15:40:37.293Z,32.53
2022-08-11T15:43:29.146Z,32.50
2022-08-11T15:46:02.452Z,32.46
2022-08-11T15:48:35.408Z,32.42
2022-08-11T15:51:09.268Z,32.40
2022-08-11T15:53:41.726Z,32.36
2022-08-11T15:56:11.777Z,32.31
2022-08-11T15:59:40.635Z,32.27
2022-08-11T16:02:06.269Z,32.22
2022-08-11T16:04:36.313Z,32.17
2022-08-11T16:07:06.261Z,32.13
2022-08-11T16:09:46.035Z,32.09
2022-08-11T16:12:18.620Z,32.06
2022-08-11T16:15:04.873Z,32.03
2022-08-11T16:17:35.277Z,31.97
2022-08-11T16:20:05.304Z,31.93
2022-08-11T16:22:37.940Z,31.91
2022-08-11T16:27:04.810Z,31.87
2022-08-11T16:27:59.063Z,31.82
2022-08-11T16:30:28.307Z,31.78
2022-08-11T16:33:00.138Z,31.73
2022-08-11T16:36:06.969Z,31.68
2022-08-11T16:38:39.181Z,31.63
2022-08-11T16:41:11.631Z,31.59
2022-08-11T16:44:05.975Z,31.54
2022-08-11T16:46:52.653Z,31.48
2022-08-11T16:49:24.923Z,31.42
2022-08-11T16:51:53.039Z,31.39
2022-08-11T16:54:21.276Z,31.35
2022-08-11T16:56:50.812Z,31.29
2022-08-11T16:59:20.555Z,31.25
2022-08-11T17:01:53.299Z,31.20
2022-08-11T17:04:46.817Z,31.16
2022-08-11T17:07:41.834Z,31.09
2022-08-11T17:10:50.970Z,31.03
2022-08-11T17:13:23.796Z,30.96
2022-08-11T17:16:12.535Z,30.90
2022-08-11T17:18:45.469Z,30.83
2022-08-11T17:21:16.067Z,30.76
2022-08-11T17:23:49.948Z,30.71
2022-08-11T17:26:19.380Z,30.64
2022-08-11T17:28:49.794Z,30.59
2022-08-11T17:31:38.139Z,30.53
2022-08-11T17:34:24.705Z,30.46
2022-08-11T17:36:53.772Z,30.40
2022-08-11T17:39:22.409Z,30.35
2022-08-11T17:42:08.603Z,30.30
2022-08-11T17:44:54.449Z,30.24
2022-08-11T17:47:43.624Z,30.18
2022-08-11T17:50:16.586Z,30.13
2022-08-11T17:53:03.694Z,30.09
2022-08-11T17:55:52.143Z,30.03
2022-08-11T17:58:39.112Z,29.98
2022-08-11T18:01:09.193Z,29.93
2022-08-11T18:03:40.044Z,29.90
2022-08-11T18:06:12.675Z,29.86
2022-08-11T18:09:04.702Z,29.83
2022-08-11T18:12:06.524Z,29.78
2022-08-11T18:14:57.832Z,29.72
2022-08-11T18:17:43.185Z,29.67
2022-08-11T18:20:30.009Z,29.62
2022-08-11T18:23:17.027Z,29.58
2022-08-11T18:26:07.292Z,29.52
2022-08-11T18:28:56.558Z,29.48
2022-08-11T18:31:43.514Z,29.42
2022-08-11T18:34:30.383Z,29.37
2022-08-11T18:37:22.775Z,29.31
2022-08-11T18:40:12.387Z,29.27
2022-08-11T18:42:59.288Z,29.22
2022-08-11T18:45:46.345Z,29.17
2022-08-11T18:48:34.209Z,29.12
2022-08-11T18:51:30.897Z,29.08
2022-08-11T18:54:26.238Z,29.01
2022-08-11T18:57:12.962Z,28.96
2022-08-11T18:59:59.148Z,28.90
2022-08-11T19:02:48.705Z,28.85
2022-08-11T19:06:35.402Z,28.80
2022-08-11T19:08:45.862Z,28.71
2022-08-11T19:11:33.394Z,28.66
2022-08-11T19:14:19.554Z,28.60
2022-08-11T19:17:05.838Z,28.53
2022-08-11T19:19:53.418Z,28.49
2022-08-11T19:22:40.042Z,28.44
2022-08-11T19:25:26.538Z,28.39
2022-08-11T19:28:14.089Z,28.33
2022-08-11T19:31:00.176Z,28.28
2022-08-11T19:33:59.799Z,28.21
2022-08-11T19:36:47.094Z,28.14
2022-08-11T19:39:33.107Z,28.09
2022-08-11T19:42:19.153Z,28.04
2022-08-11T19:45:06.175Z,27.98
2022-08-11T19:48:07.987Z,27.93
2022-08-11T19:50:59.370Z,27.87
2022-08-11T19:53:46.151Z,27.81
2022-08-11T19:56:32.705Z,27.77
2022-08-11T19:59:18.785Z,27.74
2022-08-11T20:02:13.539Z,27.69
2022-08-11T20:05:00.346Z,27.65
2022-08-11T20:07:46.286Z,27.60
2022-08-11T20:10:34.996Z,27.55
2022-08-11T20:13:22.157Z,27.51
2022-08-11T20:16:08.766Z,27.47
2022-08-11T20:18:56.594Z,27.43
2022-08-11T20:21:43.757Z,27.38
2022-08-11T20:24:30.441Z,27.35
2022-08-11T20:27:21.996Z,27.31
2022-08-11T20:30:11.362Z,27.27
2022-08-11T20:32:58.169Z,27.22
2022-08-11T20:35:46.174Z,27.19
2022-08-11T20:38:32.374Z,27.15
2022-08-11T20:41:19.412Z,27.10
2022-08-11T20:44:09.081Z,27.08
2022-08-11T20:46:57.605Z,27.05
2022-08-11T20:49:52.579Z,27.01
2022-08-11T20:52:47.442Z,26.97
2022-08-11T21:01:46.677Z,26.86
2022-08-11T21:04:32.386Z,26.82
2022-08-11T21:07:27.514Z,26.78
2022-08-11T21:10:23.715Z,26.74
2022-08-11T21:13:24.988Z,26.70
2022-08-11T21:16:25.385Z,26.65
2022-08-11T21:19:14.272Z,26.60
2022-08-11T21:22:01.565Z,26.54
2022-08-11T21:24:51.357Z,26.49
2022-08-11T21:27:39.366Z,26.43
2022-08-11T21:30:25.803Z,26.38
2022-08-11T21:33:12.023Z,26.32
2022-08-11T21:35:57.600Z,26.28
2022-08-11T21:38:44.288Z,26.23
2022-08-11T21:41:31.327Z,26.18
2022-08-11T21:44:18.851Z,26.14
2022-08-11T21:47:05.408Z,26.10
2022-08-11T21:49:51.264Z,26.07
2022-08-11T21:52:37.466Z,26.03
2022-08-11T21:55:23.417Z,25.99
2022-08-11T21:58:09.140Z,25.97
2022-08-11T22:00:55.941Z,25.93
2022-08-11T22:03:49.666Z,25.90
2022-08-11T22:06:39.038Z,25.87
2022-08-11T22:09:24.620Z,25.83
2022-08-11T22:12:30.047Z,25.79
2022-08-11T22:15:16.353Z,25.78
2022-08-11T22:18:03.388Z,25.74
2022-08-11T22:20:51.032Z,25.72
2022-08-11T22:23:37.367Z,25.70
2022-08-11T22:26:24.510Z,25.68
2022-08-11T22:29:10.712Z,25.63
2022-08-11T22:31:57.875Z,25.62
2022-08-11T22:34:53.394Z,25.58
2022-08-11T22:37:39.882Z,25.54
2022-08-11T22:40:26.208Z,25.52
2022-08-11T22:43:13.721Z,25.48
2022-08-11T22:45:59.215Z,25.45
2022-08-11T22:48:45.044Z,25.43
2022-08-11T22:51:32.457Z,25.40
2022-08-11T22:54:19.730Z,25.37
2022-08-11T22:57:05.811Z,25.33
2022-08-11T22:59:51.892Z,25.31
2022-08-11T23:02:38.119Z,25.27
2022-08-11T23:05:24.775Z,25.24
2022-08-11T23:08:12.055Z,25.21
2022-08-11T23:10:58.038Z,25.19
2022-08-11T23:13:44.221Z,25.15
2022-08-11T23:16:29.710Z,25.13
2022-08-11T23:20:07.365Z,25.12
2022-08-11T23:22:21.544Z,25.08
2022-08-11T23:25:08.466Z,25.07
2022-08-11T23:28:03.436Z,25.03
2022-08-11T23:30:49.529Z,25.01
2022-08-11T23:33:36.697Z,24.99
2022-08-11T23:36:35.948Z,24.96
2022-08-11T23:39:29.885Z,24.93
2022-08-11T23:42:17.235Z,24.91
2022-08-11T23:45:03.198Z,24.88
2022-08-11T23:47:51.066Z,24.85
2022-08-11T23:50:36.681Z,24.82
2022-08-11T23:53:22.291Z,24.81
2022-08-11T23:56:08.133Z,24.79
2022-08-11T23:58:55.536Z,24.76
